sensor_id;sensor_type;location;lat;lon;timestamp;temperature;humidity
22235;DHT22;11286;45.596;5.284;2023-05-20T00:00:36;14.30;99.90
22235;DHT22;11286;45.596;5.284;2023-05-20T00:03:02;14.20;99.90
22235;DHT22;11286;45.596;5.284;2023-05-20T00:05:27;14.20;99.90
22235;DHT22;11286;45.596;5.284;2023-05-20T00:07:53;14.20;99.90
22235;DHT22;11286;45.596;5.284;2023-05-20T00:10:18;14.20;99.90
22235;DHT22;11286;45.596;5.284;2023-05-20T00:12:44;14.20;99.90
22235;DHT22;11286;45.596;5.284;2023-05-20T00:15:10;14.30;99.90
22235;DHT22;11286;45.596;5.284;2023-05-20T00:17:37;14.30;99.90
22235;DHT22;11286;45.596;5.284;2023-05-20T00:20:03;14.20;99.90
22235;DHT22;11286;45.596;5.284;2023-05-20T00:22:30;14.30;99.90
22235;DHT22;11286;45.596;5.284;2023-05-20T00:24:55;14.30;99.90
22235;DHT22;11286;45.596;5.284;2023-05-20T00:27:21;14.20;99.90
22235;DHT22;11286;45.596;5.284;2023-05-20T00:29:46;14.30;99.90
22235;DHT22;11286;45.596;5.284;2023-05-20T00:32:12;14.20;99.90
22235;DHT22;11286;45.596;5.284;2023-05-20T00:34:38;14.20;99.90
22235;DHT22;11286;45.596;5.284;2023-05-20T00:37:04;14.20;99.90
22235;DHT22;11286;45.596;5.284;2023-05-20T00:39:30;14.10;99.90
22235;DHT22;11286;45.596;5.284;2023-05-20T00:41:56;14.30;99.90
22235;DHT22;11286;45.596;5.284;2023-05-20T00:44:25;14.20;99.90
22235;DHT22;11286;45.596;5.284;2023-05-20T00:46:52;14.20;99.90
22235;DHT22;11286;45.596;5.284;2023-05-20T00:49:18;14.20;99.90
22235;DHT22;11286;45.596;5.284;2023-05-20T00:51:44;14.10;99.90
22235;DHT22;11286;45.596;5.284;2023-05-20T00:54:10;14.10;99.90
22235;DHT22;11286;45.596;5.284;2023-05-20T00:56:36;14.10;99.90
22235;DHT22;11286;45.596;5.284;2023-05-20T00:59:02;14.00;99.90
22235;DHT22;11286;45.596;5.284;2023-05-20T01:01:27;14.10;99.90
22235;DHT22;11286;45.596;5.284;2023-05-20T01:03:53;14.10;99.90
22235;DHT22;11286;45.596;5.284;2023-05-20T01:06:19;14.00;99.90
22235;DHT22;11286;45.596;5.284;2023-05-20T01:08:44;13.80;99.90
22235;DHT22;11286;45.596;5.284;2023-05-20T01:11:19;13.80;99.90
22235;DHT22;11286;45.596;5.284;2023-05-20T01:13:51;13.80;99.90
22235;DHT22;11286;45.596;5.284;2023-05-20T01:16:19;13.80;99.90
22235;DHT22;11286;45.596;5.284;2023-05-20T01:18:47;13.80;99.90
22235;DHT22;11286;45.596;5.284;2023-05-20T01:21:14;13.80;99.90
22235;DHT22;11286;45.596;5.284;2023-05-20T01:23:41;13.80;99.90
22235;DHT22;11286;45.596;5.284;2023-05-20T01:26:08;13.80;99.90
22235;DHT22;11286;45.596;5.284;2023-05-20T01:28:38;13.70;99.90
22235;DHT22;11286;45.596;5.284;2023-05-20T01:31:05;13.60;99.90
22235;DHT22;11286;45.596;5.284;2023-05-20T01:33:35;13.70;99.90
22235;DHT22;11286;45.596;5.284;2023-05-20T01:36:01;13.70;99.90
22235;DHT22;11286;45.596;5.284;2023-05-20T01:38:27;13.60;99.90
22235;DHT22;11286;45.596;5.284;2023-05-20T01:40:56;13.60;99.90
22235;DHT22;11286;45.596;5.284;2023-05-20T01:43:23;13.80;99.90
22235;DHT22;11286;45.596;5.284;2023-05-20T01:45:50;13.80;99.90
22235;DHT22;11286;45.596;5.284;2023-05-20T01:48:15;13.90;99.90
22235;DHT22;11286;45.596;5.284;2023-05-20T01:50:41;13.90;99.90
22235;DHT22;11286;45.596;5.284;2023-05-20T01:53:07;13.80;99.90
22235;DHT22;11286;45.596;5.284;2023-05-20T01:55:34;13.70;99.90
22235;DHT22;11286;45.596;5.284;2023-05-20T01:58:00;13.60;99.90
22235;DHT22;11286;45.596;5.284;2023-05-20T02:00:26;13.50;99.90
22235;DHT22;11286;45.596;5.284;2023-05-20T02:02:51;13.50;99.90
22235;DHT22;11286;45.596;5.284;2023-05-20T02:05:17;13.70;99.90
22235;DHT22;11286;45.596;5.284;2023-05-20T02:07:42;13.50;99.90
22235;DHT22;11286;45.596;5.284;2023-05-20T02:10:08;13.50;99.90
22235;DHT22;11286;45.596;5.284;2023-05-20T02:12:34;13.50;99.90
22235;DHT22;11286;45.596;5.284;2023-05-20T02:15:00;13.60;99.90
22235;DHT22;11286;45.596;5.284;2023-05-20T02:17:25;13.30;99.90
22235;DHT22;11286;45.596;5.284;2023-05-20T02:19:51;13.20;99.90
22235;DHT22;11286;45.596;5.284;2023-05-20T02:22:17;13.20;99.90
22235;DHT22;11286;45.596;5.284;2023-05-20T02:24:43;13.20;99.90
22235;DHT22;11286;45.596;5.284;2023-05-20T02:27:09;13.40;99.90
22235;DHT22;11286;45.596;5.284;2023-05-20T02:29:35;13.50;99.90
22235;DHT22;11286;45.596;5.284;2023-05-20T02:32:01;13.50;99.90
22235;DHT22;11286;45.596;5.284;2023-05-20T02:34:27;13.50;99.90
22235;DHT22;11286;45.596;5.284;2023-05-20T02:36:54;13.60;99.90
22235;DHT22;11286;45.596;5.284;2023-05-20T02:39:21;13.60;99.90
22235;DHT22;11286;45.596;5.284;2023-05-20T02:41:46;13.60;99.90
22235;DHT22;11286;45.596;5.284;2023-05-20T02:44:12;13.50;99.90
22235;DHT22;11286;45.596;5.284;2023-05-20T02:46:38;13.40;99.90
22235;DHT22;11286;45.596;5.284;2023-05-20T02:49:03;13.30;99.90
22235;DHT22;11286;45.596;5.284;2023-05-20T02:51:29;13.50;99.90
22235;DHT22;11286;45.596;5.284;2023-05-20T02:53:56;13.60;99.90
22235;DHT22;11286;45.596;5.284;2023-05-20T02:56:22;13.70;99.90
22235;DHT22;11286;45.596;5.284;2023-05-20T02:58:49;13.80;99.90
22235;DHT22;11286;45.596;5.284;2023-05-20T03:01:15;13.70;99.90
22235;DHT22;11286;45.596;5.284;2023-05-20T03:03:41;13.60;99.90
22235;DHT22;11286;45.596;5.284;2023-05-20T03:06:07;13.50;99.90
22235;DHT22;11286;45.596;5.284;2023-05-20T03:08:32;13.40;99.90
22235;DHT22;11286;45.596;5.284;2023-05-20T03:10:59;13.40;99.90
22235;DHT22;11286;45.596;5.284;2023-05-20T03:13:25;13.50;99.90
22235;DHT22;11286;45.596;5.284;2023-05-20T03:15:51;13.30;99.90
22235;DHT22;11286;45.596;5.284;2023-05-20T03:18:17;13.30;99.90
22235;DHT22;11286;45.596;5.284;2023-05-20T03:20:42;13.20;99.90
22235;DHT22;11286;45.596;5.284;2023-05-20T03:23:08;13.30;99.90
22235;DHT22;11286;45.596;5.284;2023-05-20T03:25:36;13.30;99.90
22235;DHT22;11286;45.596;5.284;2023-05-20T03:28:02;13.30;99.90
22235;DHT22;11286;45.596;5.284;2023-05-20T03:30:28;13.20;99.90
22235;DHT22;11286;45.596;5.284;2023-05-20T03:32:54;13.30;99.90
22235;DHT22;11286;45.596;5.284;2023-05-20T03:35:22;13.30;99.90
22235;DHT22;11286;45.596;5.284;2023-05-20T03:37:47;13.40;99.90
22235;DHT22;11286;45.596;5.284;2023-05-20T03:40:13;13.30;99.90
22235;DHT22;11286;45.596;5.284;2023-05-20T03:42:39;13.10;99.90
22235;DHT22;11286;45.596;5.284;2023-05-20T03:45:05;13.20;99.90
22235;DHT22;11286;45.596;5.284;2023-05-20T03:47:34;13.30;99.90
22235;DHT22;11286;45.596;5.284;2023-05-20T03:49:59;13.30;99.90
22235;DHT22;11286;45.596;5.284;2023-05-20T03:52:25;13.30;99.90
22235;DHT22;11286;45.596;5.284;2023-05-20T03:54:52;13.00;99.90
22235;DHT22;11286;45.596;5.284;2023-05-20T03:57:17;12.80;99.90
22235;DHT22;11286;45.596;5.284;2023-05-20T03:59:44;12.80;99.90
22235;DHT22;11286;45.596;5.284;2023-05-20T04:02:09;12.80;99.90
22235;DHT22;11286;45.596;5.284;2023-05-20T04:04:35;12.90;99.90
22235;DHT22;11286;45.596;5.284;2023-05-20T04:07:01;12.80;99.90
22235;DHT22;11286;45.596;5.284;2023-05-20T04:09:27;12.80;99.90
22235;DHT22;11286;45.596;5.284;2023-05-20T04:11:53;12.80;99.90
22235;DHT22;11286;45.596;5.284;2023-05-20T04:14:18;12.80;99.90
22235;DHT22;11286;45.596;5.284;2023-05-20T04:16:44;12.70;99.90
22235;DHT22;11286;45.596;5.284;2023-05-20T04:19:10;12.70;99.90
22235;DHT22;11286;45.596;5.284;2023-05-20T04:21:37;12.50;99.90
22235;DHT22;11286;45.596;5.284;2023-05-20T04:24:03;12.50;99.90
22235;DHT22;11286;45.596;5.284;2023-05-20T04:26:29;12.50;99.90
22235;DHT22;11286;45.596;5.284;2023-05-20T04:28:55;12.70;99.90
22235;DHT22;11286;45.596;5.284;2023-05-20T04:31:23;12.70;99.90
22235;DHT22;11286;45.596;5.284;2023-05-20T04:33:54;12.80;99.90
22235;DHT22;11286;45.596;5.284;2023-05-20T04:36:19;12.70;99.90
22235;DHT22;11286;45.596;5.284;2023-05-20T04:38:46;12.80;99.90
22235;DHT22;11286;45.596;5.284;2023-05-20T04:41:12;12.90;99.90
22235;DHT22;11286;45.596;5.284;2023-05-20T04:43:40;12.90;99.90
22235;DHT22;11286;45.596;5.284;2023-05-20T04:46:06;13.00;99.90
22235;DHT22;11286;45.596;5.284;2023-05-20T04:48:32;12.60;99.90
22235;DHT22;11286;45.596;5.284;2023-05-20T04:50:58;13.10;99.90
22235;DHT22;11286;45.596;5.284;2023-05-20T04:53:23;13.10;99.90
22235;DHT22;11286;45.596;5.284;2023-05-20T04:55:53;13.10;99.90
22235;DHT22;11286;45.596;5.284;2023-05-20T04:58:19;13.00;99.90
22235;DHT22;11286;45.596;5.284;2023-05-20T05:00:49;13.00;99.90
22235;DHT22;11286;45.596;5.284;2023-05-20T05:03:14;13.10;99.90
22235;DHT22;11286;45.596;5.284;2023-05-20T05:05:41;13.10;99.90
22235;DHT22;11286;45.596;5.284;2023-05-20T05:08:07;13.00;99.90
22235;DHT22;11286;45.596;5.284;2023-05-20T05:10:33;13.10;99.90
22235;DHT22;11286;45.596;5.284;2023-05-20T05:13:00;13.20;99.90
22235;DHT22;11286;45.596;5.284;2023-05-20T05:15:25;13.10;99.90
22235;DHT22;11286;45.596;5.284;2023-05-20T05:17:51;13.00;99.90
22235;DHT22;11286;45.596;5.284;2023-05-20T05:20:17;13.10;99.90
22235;DHT22;11286;45.596;5.284;2023-05-20T05:22:43;13.10;99.90
22235;DHT22;11286;45.596;5.284;2023-05-20T05:25:09;12.90;99.90
22235;DHT22;11286;45.596;5.284;2023-05-20T05:27:35;12.90;99.90
22235;DHT22;11286;45.596;5.284;2023-05-20T05:30:02;13.00;99.90
22235;DHT22;11286;45.596;5.284;2023-05-20T05:32:27;13.00;99.90
22235;DHT22;11286;45.596;5.284;2023-05-20T05:34:53;12.90;99.90
22235;DHT22;11286;45.596;5.284;2023-05-20T05:37:19;13.00;99.90
22235;DHT22;11286;45.596;5.284;2023-05-20T05:39:45;13.00;99.90
22235;DHT22;11286;45.596;5.284;2023-05-20T05:42:11;13.20;99.90
22235;DHT22;11286;45.596;5.284;2023-05-20T05:44:37;13.40;99.90
22235;DHT22;11286;45.596;5.284;2023-05-20T05:47:03;13.60;99.90
22235;DHT22;11286;45.596;5.284;2023-05-20T05:49:30;13.50;99.90
22235;DHT22;11286;45.596;5.284;2023-05-20T05:51:55;13.70;99.90
22235;DHT22;11286;45.596;5.284;2023-05-20T05:54:21;13.50;99.90
22235;DHT22;11286;45.596;5.284;2023-05-20T05:56:46;13.80;99.90
22235;DHT22;11286;45.596;5.284;2023-05-20T05:59:12;14.00;99.90
22235;DHT22;11286;45.596;5.284;2023-05-20T06:01:38;14.10;99.90
22235;DHT22;11286;45.596;5.284;2023-05-20T06:04:03;14.10;99.90
22235;DHT22;11286;45.596;5.284;2023-05-20T06:06:30;13.90;99.90
22235;DHT22;11286;45.596;5.284;2023-05-20T06:08:55;13.70;99.90
22235;DHT22;11286;45.596;5.284;2023-05-20T06:11:22;14.00;99.90
22235;DHT22;11286;45.596;5.284;2023-05-20T06:13:48;14.00;99.90
22235;DHT22;11286;45.596;5.284;2023-05-20T06:16:14;14.00;99.90
22235;DHT22;11286;45.596;5.284;2023-05-20T06:18:41;14.10;99.90
22235;DHT22;11286;45.596;5.284;2023-05-20T06:21:06;13.80;99.90
22235;DHT22;11286;45.596;5.284;2023-05-20T06:23:32;13.80;99.90
22235;DHT22;11286;45.596;5.284;2023-05-20T06:25:58;13.80;99.90
22235;DHT22;11286;45.596;5.284;2023-05-20T06:28:25;13.90;99.90
22235;DHT22;11286;45.596;5.284;2023-05-20T06:30:50;14.10;99.90
22235;DHT22;11286;45.596;5.284;2023-05-20T06:33:18;14.40;99.90
22235;DHT22;11286;45.596;5.284;2023-05-20T06:35:44;14.50;99.90
22235;DHT22;11286;45.596;5.284;2023-05-20T06:38:10;14.50;99.90
22235;DHT22;11286;45.596;5.284;2023-05-20T06:40:35;14.80;99.90
22235;DHT22;11286;45.596;5.284;2023-05-20T06:43:01;14.70;99.90
22235;DHT22;11286;45.596;5.284;2023-05-20T06:45:27;14.60;99.90
22235;DHT22;11286;45.596;5.284;2023-05-20T06:47:53;14.60;99.90
22235;DHT22;11286;45.596;5.284;2023-05-20T06:50:19;14.60;99.90
22235;DHT22;11286;45.596;5.284;2023-05-20T06:52:45;14.90;99.90
22235;DHT22;11286;45.596;5.284;2023-05-20T06:55:11;14.90;99.90
22235;DHT22;11286;45.596;5.284;2023-05-20T06:57:37;14.90;99.90
22235;DHT22;11286;45.596;5.284;2023-05-20T07:00:03;15.10;99.90
22235;DHT22;11286;45.596;5.284;2023-05-20T07:02:31;15.30;99.90
22235;DHT22;11286;45.596;5.284;2023-05-20T07:04:57;15.30;99.90
22235;DHT22;11286;45.596;5.284;2023-05-20T07:07:23;15.30;99.90
22235;DHT22;11286;45.596;5.284;2023-05-20T07:09:49;15.40;99.90
22235;DHT22;11286;45.596;5.284;2023-05-20T07:12:14;15.20;99.90
22235;DHT22;11286;45.596;5.284;2023-05-20T07:14:41;15.20;99.90
22235;DHT22;11286;45.596;5.284;2023-05-20T07:17:06;15.50;99.90
22235;DHT22;11286;45.596;5.284;2023-05-20T07:19:32;15.30;99.90
22235;DHT22;11286;45.596;5.284;2023-05-20T07:21:58;15.20;99.90
22235;DHT22;11286;45.596;5.284;2023-05-20T07:24:24;15.20;99.90
22235;DHT22;11286;45.596;5.284;2023-05-20T07:26:50;15.10;99.90
22235;DHT22;11286;45.596;5.284;2023-05-20T07:29:16;15.20;99.90
22235;DHT22;11286;45.596;5.284;2023-05-20T07:31:41;15.20;99.90
22235;DHT22;11286;45.596;5.284;2023-05-20T07:34:07;15.20;99.90
22235;DHT22;11286;45.596;5.284;2023-05-20T07:36:32;15.40;99.90
22235;DHT22;11286;45.596;5.284;2023-05-20T07:38:58;15.50;99.90
22235;DHT22;11286;45.596;5.284;2023-05-20T07:41:24;15.40;99.90
22235;DHT22;11286;45.596;5.284;2023-05-20T07:43:50;15.20;99.90
22235;DHT22;11286;45.596;5.284;2023-05-20T07:46:16;15.30;99.90
22235;DHT22;11286;45.596;5.284;2023-05-20T07:48:42;15.60;99.90
22235;DHT22;11286;45.596;5.284;2023-05-20T07:51:09;15.80;99.90
22235;DHT22;11286;45.596;5.284;2023-05-20T07:53:36;15.70;99.90
22235;DHT22;11286;45.596;5.284;2023-05-20T07:56:01;15.70;99.90
22235;DHT22;11286;45.596;5.284;2023-05-20T07:58:27;15.80;99.90
22235;DHT22;11286;45.596;5.284;2023-05-20T08:00:53;16.00;99.90
22235;DHT22;11286;45.596;5.284;2023-05-20T08:03:19;16.10;99.90
22235;DHT22;11286;45.596;5.284;2023-05-20T08:05:46;16.10;99.90
22235;DHT22;11286;45.596;5.284;2023-05-20T08:08:12;16.10;99.90
22235;DHT22;11286;45.596;5.284;2023-05-20T08:10:37;16.20;99.90
22235;DHT22;11286;45.596;5.284;2023-05-20T08:13:03;16.20;99.90
22235;DHT22;11286;45.596;5.284;2023-05-20T08:15:29;16.20;99.90
22235;DHT22;11286;45.596;5.284;2023-05-20T08:17:54;16.20;99.90
22235;DHT22;11286;45.596;5.284;2023-05-20T08:20:21;16.40;99.90
22235;DHT22;11286;45.596;5.284;2023-05-20T08:22:46;16.60;99.90
22235;DHT22;11286;45.596;5.284;2023-05-20T08:25:12;17.00;99.90
22235;DHT22;11286;45.596;5.284;2023-05-20T08:27:38;17.00;99.90
22235;DHT22;11286;45.596;5.284;2023-05-20T08:30:04;17.00;99.90
22235;DHT22;11286;45.596;5.284;2023-05-20T08:32:32;16.60;99.90
22235;DHT22;11286;45.596;5.284;2023-05-20T08:34:58;16.70;99.90
22235;DHT22;11286;45.596;5.284;2023-05-20T08:37:26;16.90;99.90
22235;DHT22;11286;45.596;5.284;2023-05-20T08:39:52;16.90;99.90
22235;DHT22;11286;45.596;5.284;2023-05-20T08:42:23;16.80;99.90
22235;DHT22;11286;45.596;5.284;2023-05-20T08:44:53;16.80;99.90
22235;DHT22;11286;45.596;5.284;2023-05-20T08:47:20;16.80;99.90
22235;DHT22;11286;45.596;5.284;2023-05-20T08:49:49;17.00;99.90
22235;DHT22;11286;45.596;5.284;2023-05-20T08:52:17;17.40;99.90
22235;DHT22;11286;45.596;5.284;2023-05-20T08:54:48;17.70;99.90
22235;DHT22;11286;45.596;5.284;2023-05-20T08:57:14;17.80;99.90
22235;DHT22;11286;45.596;5.284;2023-05-20T08:59:44;17.80;99.90
22235;DHT22;11286;45.596;5.284;2023-05-20T09:02:11;17.90;99.90
22235;DHT22;11286;45.596;5.284;2023-05-20T09:04:37;18.00;99.90
22235;DHT22;11286;45.596;5.284;2023-05-20T09:07:03;18.10;99.90
22235;DHT22;11286;45.596;5.284;2023-05-20T09:09:29;18.30;99.90
22235;DHT22;11286;45.596;5.284;2023-05-20T09:11:55;18.50;99.90
22235;DHT22;11286;45.596;5.284;2023-05-20T09:14:21;18.80;99.90
22235;DHT22;11286;45.596;5.284;2023-05-20T09:16:48;18.80;99.90
22235;DHT22;11286;45.596;5.284;2023-05-20T09:19:13;18.20;99.90
22235;DHT22;11286;45.596;5.284;2023-05-20T09:21:40;18.20;99.90
22235;DHT22;11286;45.596;5.284;2023-05-20T09:24:06;18.50;99.90
22235;DHT22;11286;45.596;5.284;2023-05-20T09:26:32;18.20;99.90
22235;DHT22;11286;45.596;5.284;2023-05-20T09:28:59;18.00;99.90
22235;DHT22;11286;45.596;5.284;2023-05-20T09:31:31;18.00;99.90
22235;DHT22;11286;45.596;5.284;2023-05-20T09:33:59;17.80;99.90
22235;DHT22;11286;45.596;5.284;2023-05-20T09:36:27;17.80;99.90
22235;DHT22;11286;45.596;5.284;2023-05-20T09:38:57;17.70;99.90
22235;DHT22;11286;45.596;5.284;2023-05-20T09:41:27;17.70;99.90
22235;DHT22;11286;45.596;5.284;2023-05-20T09:43:56;17.60;99.90
22235;DHT22;11286;45.596;5.284;2023-05-20T09:46:23;17.40;99.90
22235;DHT22;11286;45.596;5.284;2023-05-20T09:48:49;17.50;99.90
22235;DHT22;11286;45.596;5.284;2023-05-20T09:51:16;17.60;99.90
22235;DHT22;11286;45.596;5.284;2023-05-20T09:53:42;17.70;99.90
22235;DHT22;11286;45.596;5.284;2023-05-20T09:56:07;17.70;99.90
22235;DHT22;11286;45.596;5.284;2023-05-20T09:58:35;17.80;99.90
22235;DHT22;11286;45.596;5.284;2023-05-20T10:01:01;17.70;99.90
22235;DHT22;11286;45.596;5.284;2023-05-20T10:03:27;17.60;99.90
22235;DHT22;11286;45.596;5.284;2023-05-20T10:09:10;17.50;99.90
22235;DHT22;11286;45.596;5.284;2023-05-20T10:11:51;17.60;99.90
22235;DHT22;11286;45.596;5.284;2023-05-20T10:17:34;18.20;99.90
22235;DHT22;11286;45.596;5.284;2023-05-20T10:20:02;18.50;99.90
22235;DHT22;11286;45.596;5.284;2023-05-20T10:22:31;18.50;99.90
22235;DHT22;11286;45.596;5.284;2023-05-20T10:24:58;18.50;99.90
22235;DHT22;11286;45.596;5.284;2023-05-20T10:27:24;18.80;99.90
22235;DHT22;11286;45.596;5.284;2023-05-20T10:32:27;19.40;99.90
22235;DHT22;11286;45.596;5.284;2023-05-20T10:34:58;19.70;99.90
22235;DHT22;11286;45.596;5.284;2023-05-20T10:37:30;19.80;99.90
22235;DHT22;11286;45.596;5.284;2023-05-20T10:40:24;19.70;99.90
22235;DHT22;11286;45.596;5.284;2023-05-20T10:42:49;19.60;99.90
22235;DHT22;11286;45.596;5.284;2023-05-20T10:45:27;19.50;99.90
22235;DHT22;11286;45.596;5.284;2023-05-20T10:47:57;19.40;99.90
22235;DHT22;11286;45.596;5.284;2023-05-20T10:50:35;19.10;99.90
22235;DHT22;11286;45.596;5.284;2023-05-20T10:53:05;19.10;99.90
22235;DHT22;11286;45.596;5.284;2023-05-20T10:55:39;19.10;99.90
22235;DHT22;11286;45.596;5.284;2023-05-20T10:58:05;19.10;99.90
22235;DHT22;11286;45.596;5.284;2023-05-20T11:00:34;19.20;99.90
22235;DHT22;11286;45.596;5.284;2023-05-20T11:03:04;19.30;99.90
22235;DHT22;11286;45.596;5.284;2023-05-20T11:05:31;19.30;99.90
22235;DHT22;11286;45.596;5.284;2023-05-20T11:08:05;19.40;99.90
22235;DHT22;11286;45.596;5.284;2023-05-20T11:10:33;19.30;99.90
22235;DHT22;11286;45.596;5.284;2023-05-20T11:13:00;19.00;99.90
22235;DHT22;11286;45.596;5.284;2023-05-20T11:15:26;19.00;99.90
22235;DHT22;11286;45.596;5.284;2023-05-20T11:17:56;19.20;99.90
22235;DHT22;11286;45.596;5.284;2023-05-20T11:20:23;19.10;99.90
22235;DHT22;11286;45.596;5.284;2023-05-20T11:22:53;19.30;99.90
22235;DHT22;11286;45.596;5.284;2023-05-20T11:25:19;19.20;99.90
22235;DHT22;11286;45.596;5.284;2023-05-20T11:27:48;19.20;99.90
22235;DHT22;11286;45.596;5.284;2023-05-20T11:30:15;19.10;99.90
22235;DHT22;11286;45.596;5.284;2023-05-20T11:32:59;19.30;99.90
22235;DHT22;11286;45.596;5.284;2023-05-20T11:35:27;19.50;99.90
22235;DHT22;11286;45.596;5.284;2023-05-20T11:40:28;19.50;99.90
22235;DHT22;11286;45.596;5.284;2023-05-20T11:42:57;19.90;99.90
22235;DHT22;11286;45.596;5.284;2023-05-20T11:45:23;20.20;99.90
22235;DHT22;11286;45.596;5.284;2023-05-20T11:48:00;20.30;99.90
22235;DHT22;11286;45.596;5.284;2023-05-20T11:50:25;20.70;99.90
22235;DHT22;11286;45.596;5.284;2023-05-20T11:52:57;20.50;99.90
22235;DHT22;11286;45.596;5.284;2023-05-20T11:55:23;20.50;99.90
22235;DHT22;11286;45.596;5.284;2023-05-20T11:57:49;20.80;99.90
22235;DHT22;11286;45.596;5.284;2023-05-20T12:00:16;20.60;99.90
22235;DHT22;11286;45.596;5.284;2023-05-20T12:02:42;20.60;99.90
22235;DHT22;11286;45.596;5.284;2023-05-20T12:05:08;20.40;99.90
22235;DHT22;11286;45.596;5.284;2023-05-20T12:07:34;20.40;99.90
22235;DHT22;11286;45.596;5.284;2023-05-20T12:10:02;20.40;99.90
22235;DHT22;11286;45.596;5.284;2023-05-20T12:12:27;20.30;99.90
22235;DHT22;11286;45.596;5.284;2023-05-20T12:14:53;20.20;99.90
22235;DHT22;11286;45.596;5.284;2023-05-20T12:17:19;20.30;99.90
22235;DHT22;11286;45.596;5.284;2023-05-20T12:19:44;20.30;99.90
22235;DHT22;11286;45.596;5.284;2023-05-20T12:22:10;20.20;99.90
22235;DHT22;11286;45.596;5.284;2023-05-20T12:24:36;20.20;99.90
22235;DHT22;11286;45.596;5.284;2023-05-20T12:27:01;19.90;99.90
22235;DHT22;11286;45.596;5.284;2023-05-20T12:29:28;20.00;99.90
22235;DHT22;11286;45.596;5.284;2023-05-20T12:31:54;20.10;99.90
22235;DHT22;11286;45.596;5.284;2023-05-20T12:34:20;20.30;99.90
22235;DHT22;11286;45.596;5.284;2023-05-20T12:36:45;20.80;99.90
22235;DHT22;11286;45.596;5.284;2023-05-20T12:39:12;20.90;99.90
22235;DHT22;11286;45.596;5.284;2023-05-20T12:41:39;20.60;99.90
22235;DHT22;11286;45.596;5.284;2023-05-20T12:44:06;20.50;99.90
22235;DHT22;11286;45.596;5.284;2023-05-20T12:46:32;20.20;99.90
22235;DHT22;11286;45.596;5.284;2023-05-20T12:48:57;20.10;99.90
22235;DHT22;11286;45.596;5.284;2023-05-20T12:51:24;20.20;99.90
22235;DHT22;11286;45.596;5.284;2023-05-20T12:53:49;20.40;99.90
22235;DHT22;11286;45.596;5.284;2023-05-20T12:56:15;20.50;99.90
22235;DHT22;11286;45.596;5.284;2023-05-20T12:58:41;20.30;99.90
22235;DHT22;11286;45.596;5.284;2023-05-20T13:01:06;20.00;99.90
22235;DHT22;11286;45.596;5.284;2023-05-20T13:03:32;19.90;99.90
22235;DHT22;11286;45.596;5.284;2023-05-20T13:05:57;19.90;99.90
22235;DHT22;11286;45.596;5.284;2023-05-20T13:08:23;19.90;99.90
22235;DHT22;11286;45.596;5.284;2023-05-20T13:10:49;20.00;99.90
22235;DHT22;11286;45.596;5.284;2023-05-20T13:13:15;20.00;99.90
22235;DHT22;11286;45.596;5.284;2023-05-20T13:15:48;20.20;99.90
22235;DHT22;11286;45.596;5.284;2023-05-20T13:18:14;20.10;99.90
22235;DHT22;11286;45.596;5.284;2023-05-20T13:20:41;20.30;99.90
22235;DHT22;11286;45.596;5.284;2023-05-20T13:23:07;20.40;99.90
22235;DHT22;11286;45.596;5.284;2023-05-20T13:25:33;20.40;99.90
22235;DHT22;11286;45.596;5.284;2023-05-20T13:27:59;20.40;99.90
22235;DHT22;11286;45.596;5.284;2023-05-20T13:30:25;20.40;99.90
22235;DHT22;11286;45.596;5.284;2023-05-20T13:32:52;20.60;99.90
22235;DHT22;11286;45.596;5.284;2023-05-20T13:35:18;20.30;99.90
22235;DHT22;11286;45.596;5.284;2023-05-20T13:37:44;20.30;99.90
22235;DHT22;11286;45.596;5.284;2023-05-20T13:40:10;20.30;99.90
22235;DHT22;11286;45.596;5.284;2023-05-20T13:42:36;20.20;99.90
22235;DHT22;11286;45.596;5.284;2023-05-20T13:45:02;20.10;99.90
22235;DHT22;11286;45.596;5.284;2023-05-20T13:47:28;20.00;99.90
22235;DHT22;11286;45.596;5.284;2023-05-20T13:49:54;20.00;99.90
22235;DHT22;11286;45.596;5.284;2023-05-20T13:52:20;20.00;99.90
22235;DHT22;11286;45.596;5.284;2023-05-20T13:54:45;20.30;99.90
22235;DHT22;11286;45.596;5.284;2023-05-20T13:57:13;20.20;99.90
22235;DHT22;11286;45.596;5.284;2023-05-20T13:59:39;20.20;99.90
22235;DHT22;11286;45.596;5.284;2023-05-20T14:02:04;20.20;99.90
22235;DHT22;11286;45.596;5.284;2023-05-20T14:04:30;20.40;99.90
22235;DHT22;11286;45.596;5.284;2023-05-20T14:06:56;20.40;99.90
22235;DHT22;11286;45.596;5.284;2023-05-20T14:09:21;20.20;99.90
22235;DHT22;11286;45.596;5.284;2023-05-20T14:11:47;20.30;99.90
22235;DHT22;11286;45.596;5.284;2023-05-20T14:14:13;20.50;99.90
22235;DHT22;11286;45.596;5.284;2023-05-20T14:16:38;20.70;99.90
22235;DHT22;11286;45.596;5.284;2023-05-20T14:19:04;20.50;99.90
22235;DHT22;11286;45.596;5.284;2023-05-20T14:21:30;20.50;99.90
22235;DHT22;11286;45.596;5.284;2023-05-20T14:23:57;20.50;99.90
22235;DHT22;11286;45.596;5.284;2023-05-20T14:26:23;20.40;99.90
22235;DHT22;11286;45.596;5.284;2023-05-20T14:28:49;20.60;99.90
22235;DHT22;11286;45.596;5.284;2023-05-20T14:31:14;20.70;99.90
22235;DHT22;11286;45.596;5.284;2023-05-20T14:33:40;20.50;99.90
22235;DHT22;11286;45.596;5.284;2023-05-20T14:36:06;20.60;99.90
22235;DHT22;11286;45.596;5.284;2023-05-20T14:38:32;20.70;99.90
22235;DHT22;11286;45.596;5.284;2023-05-20T14:40:57;20.60;99.90
22235;DHT22;11286;45.596;5.284;2023-05-20T14:43:23;20.70;99.90
22235;DHT22;11286;45.596;5.284;2023-05-20T14:45:49;20.80;99.90
22235;DHT22;11286;45.596;5.284;2023-05-20T14:48:14;21.10;99.90
22235;DHT22;11286;45.596;5.284;2023-05-20T14:50:40;21.20;99.90
22235;DHT22;11286;45.596;5.284;2023-05-20T14:53:06;21.00;99.90
22235;DHT22;11286;45.596;5.284;2023-05-20T14:55:31;20.90;99.90
22235;DHT22;11286;45.596;5.284;2023-05-20T14:57:57;20.80;99.90
22235;DHT22;11286;45.596;5.284;2023-05-20T15:00:22;20.90;99.90
22235;DHT22;11286;45.596;5.284;2023-05-20T15:02:48;20.90;99.90
22235;DHT22;11286;45.596;5.284;2023-05-20T15:05:14;20.90;99.90
22235;DHT22;11286;45.596;5.284;2023-05-20T15:07:39;20.90;99.90
22235;DHT22;11286;45.596;5.284;2023-05-20T15:10:05;20.60;99.90
22235;DHT22;11286;45.596;5.284;2023-05-20T15:12:32;20.60;99.90
22235;DHT22;11286;45.596;5.284;2023-05-20T15:14:57;20.60;99.90
22235;DHT22;11286;45.596;5.284;2023-05-20T15:17:23;20.60;99.90
22235;DHT22;11286;45.596;5.284;2023-05-20T15:19:49;20.40;99.90
22235;DHT22;11286;45.596;5.284;2023-05-20T15:22:14;20.20;99.90
22235;DHT22;11286;45.596;5.284;2023-05-20T15:24:40;20.10;99.90
22235;DHT22;11286;45.596;5.284;2023-05-20T15:27:05;20.10;99.90
22235;DHT22;11286;45.596;5.284;2023-05-20T15:29:31;20.20;99.90
22235;DHT22;11286;45.596;5.284;2023-05-20T15:31:57;20.30;99.90
22235;DHT22;11286;45.596;5.284;2023-05-20T15:34:23;20.30;99.90
22235;DHT22;11286;45.596;5.284;2023-05-20T15:36:48;20.30;99.90